createdAt,value
2022-12-01T05:03:15.307Z,3.44
2022-12-01T05:06:23.579Z,3.12
2022-12-01T05:09:25.499Z,2.94
2022-12-01T05:12:27.816Z,2.74
2022-12-01T05:15:30.151Z,2.73
2022-12-01T05:18:33.032Z,2.83
2022-12-01T05:21:35.158Z,2.69
2022-12-01T05:24:37.492Z,2.53
2022-12-01T05:27:39.604Z,2.56
2022-12-01T05:30:41.986Z,2.54
2022-12-01T05:33:44.091Z,2.62
2022-12-01T05:36:46.620Z,2.32
2022-12-01T05:39:48.956Z,2.12
2022-12-01T05:42:51.452Z,1.93
2022-12-01T05:45:55.319Z,1.84
2022-12-01T05:48:57.734Z,1.81
2022-12-01T05:51:59.801Z,1.75
2022-12-01T05:55:06.736Z,1.71
2022-12-01T05:58:08.977Z,1.76
2022-12-01T06:01:11.324Z,2.00
2022-12-01T06:04:13.698Z,1.94
2022-12-01T06:07:15.820Z,1.86
2022-12-01T06:10:18.223Z,2.15
2022-12-01T06:13:20.277Z,2.27
2022-12-01T06:16:22.667Z,2.32
2022-12-01T06:19:24.748Z,2.26
2022-12-01T06:22:27.109Z,2.12
2022-12-01T06:25:29.260Z,2.16
2022-12-01T06:28:31.628Z,2.06
2022-12-01T06:31:33.729Z,2.24
2022-12-01T06:34:38.137Z,1.99
2022-12-01T06:37:40.316Z,1.94
2022-12-01T06:40:44.391Z,2.07
2022-12-01T06:43:46.924Z,2.10
2022-12-01T06:46:52.953Z,2.08
2022-12-01T06:49:55.083Z,2.04
2022-12-01T06:52:59.271Z,2.04
2022-12-01T06:56:03.309Z,2.03
2022-12-01T06:59:06.272Z,2.12
2022-12-01T07:02:11.146Z,2.12
2022-12-01T07:05:13.516Z,2.06
2022-12-01T07:08:15.636Z,2.07
2022-12-01T07:11:18.773Z,2.13
2022-12-01T07:14:26.457Z,2.07
2022-12-01T07:17:29.627Z,2.30
2022-12-01T07:20:31.643Z,2.30
2022-12-01T07:23:34.585Z,2.31
2022-12-01T07:26:36.689Z,2.43
2022-12-01T07:29:39.093Z,2.62
2022-12-01T07:32:41.167Z,2.82
2022-12-01T07:35:43.541Z,2.97
2022-12-01T07:38:45.843Z,2.84
2022-12-01T07:41:48.194Z,2.78
2022-12-01T07:44:50.276Z,2.83
2022-12-01T07:47:54.156Z,2.79
2022-12-01T07:50:56.233Z,2.84
2022-12-01T07:54:03.179Z,2.97
2022-12-01T07:57:05.200Z,3.00
2022-12-01T08:00:09.076Z,3.19
2022-12-01T08:03:14.143Z,3.34
2022-12-01T08:06:17.655Z,3.44
2022-12-01T08:09:19.682Z,3.41
2022-12-01T08:12:22.673Z,3.52
2022-12-01T08:15:24.828Z,3.57
2022-12-01T08:18:27.207Z,3.91
2022-12-01T08:21:29.306Z,4.09
2022-12-01T08:24:31.620Z,4.05
2022-12-01T08:27:34.239Z,4.04
2022-12-01T08:30:36.588Z,4.32
2022-12-01T08:33:38.731Z,4.52
2022-12-01T08:36:41.084Z,4.49
2022-12-01T08:39:46.135Z,4.55
2022-12-01T08:42:48.806Z,4.72
2022-12-01T08:45:51.021Z,4.87
2022-12-01T08:48:55.227Z,4.84
2022-12-01T08:51:57.414Z,4.62
2022-12-01T08:55:00.500Z,4.73
2022-12-01T08:58:02.555Z,4.80
2022-12-01T09:01:10.496Z,4.97
2022-12-01T09:04:12.592Z,5.10
2022-12-01T09:07:19.164Z,5.19
2022-12-01T09:10:24.992Z,5.12
2022-12-01T09:13:28.512Z,5.18
2022-12-01T09:16:31.032Z,5.33
2022-12-01T09:19:33.984Z,5.45
2022-12-01T09:22:36.066Z,5.62
2022-12-01T09:25:38.445Z,5.66
2022-12-01T09:28:40.606Z,5.86
2022-12-01T09:31:43.833Z,5.95
2022-12-01T09:34:45.950Z,5.99
2022-12-01T09:37:48.278Z,5.98
2022-12-01T09:40:52.180Z,6.26
2022-12-01T09:44:15.135Z,6.43
2022-12-01T09:47:30.100Z,6.57
2022-12-01T09:50:47.139Z,6.62
2022-12-01T09:53:54.311Z,6.64
2022-12-01T09:56:59.465Z,6.61
2022-12-01T10:00:06.469Z,6.53
2022-12-01T10:03:33.046Z,6.59
2022-12-01T10:06:41.424Z,6.67
2022-12-01T10:09:58.894Z,6.68
2022-12-01T10:13:01.384Z,6.62
2022-12-01T10:16:11.480Z,6.51
2022-12-01T10:19:23.867Z,6.46
2022-12-01T10:22:45.331Z,6.43
2022-12-01T10:26:10.023Z,6.41
2022-12-01T10:29:19.724Z,6.57
2022-12-01T10:32:51.977Z,6.72
2022-12-01T10:35:54.235Z,6.71
2022-12-01T10:38:56.659Z,6.82
2022-12-01T10:42:07.517Z,6.76
2022-12-01T10:45:18.145Z,6.97
2022-12-01T10:48:22.179Z,7.07
2022-12-01T10:51:26.504Z,7.13
2022-12-01T10:54:40.420Z,7.04
2022-12-01T10:57:45.155Z,6.93
2022-12-01T11:01:00.718Z,6.96
2022-12-01T11:04:21.135Z,7.19
2022-12-01T11:07:35.800Z,7.41
2022-12-01T11:10:38.703Z,7.39
2022-12-01T11:13:42.186Z,7.37
2022-12-01T11:16:47.975Z,7.19
2022-12-01T11:19:50.517Z,7.23
2022-12-01T11:22:53.870Z,7.17
2022-12-01T11:26:13.310Z,7.11
2022-12-01T11:29:33.041Z,7.09
2022-12-01T11:32:38.855Z,7.18
2022-12-01T11:35:47.515Z,7.25
2022-12-01T11:38:50.617Z,7.16
2022-12-01T11:41:59.782Z,7.20
2022-12-01T11:45:17.206Z,7.33
2022-12-01T11:48:25.679Z,7.41
2022-12-01T11:51:37.783Z,7.51
2022-12-01T11:54:55.723Z,7.56
2022-12-01T11:58:02.584Z,7.54
2022-12-01T12:01:21.793Z,7.56
2022-12-01T12:05:09.070Z,7.57
2022-12-01T12:08:26.310Z,7.50
2022-12-01T12:11:46.300Z,7.69
2022-12-01T12:14:56.293Z,7.78
2022-12-01T12:18:15.927Z,7.87
2022-12-01T12:21:30.003Z,7.83
2022-12-01T12:25:06.109Z,7.78
2022-12-01T12:28:25.770Z,7.69
2022-12-01T12:31:55.853Z,7.82
2022-12-01T12:35:25.181Z,7.86
2022-12-01T12:38:27.448Z,7.79
2022-12-01T12:41:57.059Z,7.77
2022-12-01T12:45:16.171Z,7.99
2022-12-01T12:48:28.685Z,8.05
2022-12-01T12:51:39.624Z,8.19
2022-12-01T12:55:06.666Z,8.15
2022-12-01T12:58:22.472Z,8.13
2022-12-01T13:01:55.967Z,8.04
2022-12-01T13:05:23.697Z,8.02
2022-12-01T13:08:35.300Z,8.02
2022-12-01T13:11:50.116Z,7.96
2022-12-01T13:15:01.205Z,8.02
2022-12-01T13:18:17.894Z,7.98
2022-12-01T13:21:21.691Z,8.08
2022-12-01T13:24:27.890Z,8.01
2022-12-01T13:27:35.101Z,7.76
2022-12-01T13:30:37.986Z,7.71
2022-12-01T13:33:53.682Z,7.71
2022-12-01T13:36:56.492Z,7.82
2022-12-01T13:40:31.471Z,7.73
2022-12-01T13:43:33.918Z,7.85
2022-12-01T13:46:36.944Z,7.84
2022-12-01T13:49:52.589Z,7.93
2022-12-01T13:53:12.245Z,7.97
2022-12-01T13:56:17.452Z,7.92
2022-12-01T13:59:39.348Z,7.79
2022-12-01T14:02:41.786Z,7.91
2022-12-01T14:05:53.273Z,7.87
2022-12-01T14:09:14.583Z,7.74
2022-12-01T14:12:24.236Z,7.74
2022-12-01T14:15:42.676Z,7.60
2022-12-01T14:18:55.883Z,7.44
2022-12-01T14:22:00.143Z,7.40
2022-12-01T14:25:07.547Z,7.53
2022-12-01T14:28:16.759Z,7.57
2022-12-01T14:31:20.570Z,7.52
2022-12-01T14:34:26.480Z,7.49
2022-12-01T14:37:35.300Z,7.38
2022-12-01T14:40:37.560Z,7.39
2022-12-01T14:44:01.380Z,7.11
2022-12-01T14:47:22.299Z,7.03
2022-12-01T14:50:32.694Z,6.89
2022-12-01T14:53:40.721Z,6.79
2022-12-01T14:56:46.392Z,6.79
2022-12-01T15:00:02.186Z,6.70
2022-12-01T15:03:12.612Z,6.70
2022-12-01T15:06:19.950Z,6.70
2022-12-01T15:09:39.028Z,6.62
2022-12-01T15:12:41.163Z,6.53
2022-12-01T15:15:52.292Z,6.51
2022-12-01T15:18:54.885Z,6.48
2022-12-01T15:21:58.154Z,6.38
2022-12-01T15:25:15.133Z,6.34
2022-12-01T15:28:22.792Z,6.27
2022-12-01T15:31:24.953Z,6.22
2022-12-01T15:34:32.040Z,6.16
2022-12-01T15:37:42.567Z,6.18
2022-12-01T15:44:22.618Z,6.19
2022-12-01T15:47:43.653Z,6.04
2022-12-01T15:51:18.955Z,5.96
2022-12-01T15:54:25.344Z,5.96
2022-12-01T15:57:27.552Z,5.96
2022-12-01T16:00:29.944Z,5.94
2022-12-01T16:03:46.692Z,5.86
2022-12-01T16:07:06.819Z,5.86
2022-12-01T16:10:28.857Z,5.93
2022-12-01T16:13:41.789Z,5.83
2022-12-01T16:16:46.238Z,5.83
2022-12-01T16:19:48.415Z,5.93
2022-12-01T16:22:58.705Z,6.05
2022-12-01T16:26:02.215Z,6.04
